Portada
METAR-TAF:

METAR-TAF

Aeroports :

Pohnpei, Micronèsia

latitud: 06-59N, longitud: 158-12E, altitud: 2 m

Observació

L'informe es va fer fa 29 minuts, a les 20:50 UTC
Vent 5 kt del Sud-Est
Temperatura 28°C
Humitat 89%
Pressió 1011 hPa
Visibilitat: 24.1 km
Núvols disperses a una alçada de 1800 ft
Cel ennuvolat a una alçada de 13000 ft
Cel cobert a una alçada de 30000 ft

METAR: PTPN 172050Z 14005KT 15SM SCT018 BKN130 OVC300 28/26 A2985

Hora: 08:19 (21:19 UTC)

Pronòstic

L'informe es va fer fa 21 hores i 57 minuts, a les 23:22 UTC
Pronòstic vàlid del 17 a les 00 UTC al 17 a les 24 UTC
Vent 5 kt amb direcció variable
Visibilitat: 10 km
Núvols disperses a una alçada de 1800 ft
Núvols disperses a una alçada de 5000 ft
xàfecs en les proximitats

TAF: PTPN 162322Z 1700/1724 VRB05KT P6SM VCSH SCT018 SCT050

Observacions i pronòstics meteorològics de més de 4000 aeroports (METAR i TAF).

Les estacions disponibles són els punts grocs i vermells al mapa.

Posi el ratolí al punt desitjat per veure el nom de l'estació.

Feu clic per veure les observacions i els pronòstics meteorològics.

Per canviar el mapa: feu clic els botons verds amb una creu de color negre per apropar; al botó verd amb un guió per allunyar la imatge; o en les fletxes verdes per a mapes adjacents.


METAR-TAF: